Anvle, Pennsylvania
Current Conditions -  °F | °C
As of 6:34 PM on Monday 22 Dec 2014 (Local Time) from KMUI Reporting Station
Overcast Overcast  
Wind Chill:   Ceiling: 4200
Heat Index:   Visibility: 10mi
Dew Point:   Wind: 1mph
Humidity: 87%   Direction: 20°NNE
Pressure: 30.17"   Gusts: NA
Location:  40.43°N, 76.56°W
Report Text: KMUI 222334Z AUTO 02001KT 10SM SCT022 OVC042 02/00 A3017 RMK AO2 UPB2305E2306RAB2312E2323DZB2306E2331
Loading
Personal Weather Stations






























Interactive Weather Map New forecast layout! Learn more

10-Day Weather Forecast

Advertisements
Track Severe Weather on mobile